createdAt,value
2022-07-26T00:00:33.377Z,26.32
2022-07-26T00:03:00.618Z,26.30
2022-07-26T00:05:27.829Z,26.30
2022-07-26T00:08:10.796Z,26.28
2022-07-26T00:10:38.121Z,26.27
2022-07-26T00:13:05.341Z,26.26
2022-07-26T00:15:32.489Z,26.24
2022-07-26T00:17:59.707Z,26.23
2022-07-26T00:20:27.602Z,26.22
2022-07-26T00:22:54.951Z,26.21
2022-07-26T00:25:23.803Z,26.18
2022-07-26T00:27:50.968Z,26.19
2022-07-26T00:30:19.180Z,26.17
2022-07-26T00:32:46.319Z,26.16
2022-07-26T00:35:15.738Z,26.16
2022-07-26T00:37:42.918Z,26.14
2022-07-26T00:40:10.074Z,26.13
2022-07-26T00:42:37.290Z,26.12
2022-07-26T00:45:04.428Z,26.11
2022-07-26T00:47:40.476Z,26.11
2022-07-26T00:50:07.588Z,26.10
2022-07-26T00:52:34.707Z,26.10
2022-07-26T00:55:01.848Z,26.09
2022-07-26T00:57:36.558Z,26.08
2022-07-26T01:00:03.738Z,26.08
2022-07-26T01:02:30.902Z,26.07
2022-07-26T01:04:58.058Z,26.06
2022-07-26T01:07:25.349Z,26.05
2022-07-26T01:09:52.522Z,26.05
2022-07-26T01:12:22.128Z,26.04
2022-07-26T01:14:51.987Z,26.03
2022-07-26T01:17:19.111Z,26.01
2022-07-26T01:19:46.229Z,26.02
2022-07-26T01:22:15.839Z,26.01
2022-07-26T01:24:45.481Z,26.00
2022-07-26T01:27:12.604Z,26.00
2022-07-26T01:29:39.790Z,25.98
2022-07-26T01:32:07.990Z,25.97
2022-07-26T01:34:37.829Z,25.97
2022-07-26T01:37:06.088Z,25.96
2022-07-26T01:39:33.199Z,25.96
2022-07-26T01:42:02.205Z,25.96
2022-07-26T01:44:29.322Z,25.95
2022-07-26T01:46:59.334Z,25.95
2022-07-26T01:49:26.476Z,25.94
2022-07-26T01:51:53.623Z,25.94
2022-07-26T01:54:24.463Z,25.91
2022-07-26T01:56:51.801Z,25.92
2022-07-26T01:59:21.265Z,25.91
2022-07-26T02:01:48.485Z,25.90
2022-07-26T02:04:35.979Z,25.90
2022-07-26T02:07:13.167Z,25.89
2022-07-26T02:09:40.523Z,25.89
2022-07-26T02:12:09.865Z,25.89
2022-07-26T02:14:38.126Z,25.88
2022-07-26T02:17:05.262Z,25.87
2022-07-26T02:19:32.392Z,25.86
2022-07-26T02:21:59.511Z,25.85
2022-07-26T02:24:31.561Z,25.86
2022-07-26T02:26:58.761Z,25.85
2022-07-26T02:29:28.375Z,25.85
2022-07-26T02:31:56.125Z,25.83
2022-07-26T02:34:23.261Z,25.83
2022-07-26T02:36:51.541Z,25.81
2022-07-26T02:39:21.497Z,25.82
2022-07-26T02:41:49.333Z,25.82
2022-07-26T02:44:16.514Z,25.81
2022-07-26T02:46:43.718Z,25.81
2022-07-26T02:49:12.338Z,25.81
2022-07-26T02:51:39.502Z,25.80
2022-07-26T02:54:06.941Z,25.79
2022-07-26T02:56:34.318Z,25.78
2022-07-26T02:59:02.449Z,25.78
2022-07-26T03:01:29.712Z,25.77
2022-07-26T03:03:56.949Z,25.76
2022-07-26T03:06:25.139Z,25.76
2022-07-26T03:08:52.315Z,25.76
2022-07-26T03:11:19.421Z,25.76
2022-07-26T03:13:46.548Z,25.75
2022-07-26T03:16:13.772Z,25.75
2022-07-26T03:18:44.596Z,25.73
2022-07-26T03:21:11.709Z,25.74
2022-07-26T03:23:41.293Z,25.73
2022-07-26T03:26:09.020Z,25.72
2022-07-26T03:28:36.265Z,25.71
2022-07-26T03:31:03.614Z,25.71
2022-07-26T03:33:33.265Z,25.71
2022-07-26T03:36:03.106Z,25.70
2022-07-26T03:38:30.811Z,25.70
2022-07-26T03:40:57.957Z,25.69
2022-07-26T03:43:25.070Z,25.68
2022-07-26T03:45:54.625Z,25.67
2022-07-26T03:48:22.117Z,25.68
2022-07-26T03:50:51.562Z,25.67
2022-07-26T03:53:18.697Z,25.67
2022-07-26T03:56:04.811Z,25.66
2022-07-26T03:58:31.943Z,25.66
2022-07-26T04:00:59.049Z,25.65
2022-07-26T04:03:26.158Z,25.64
2022-07-26T04:05:53.292Z,25.65
2022-07-26T04:08:20.407Z,25.64
2022-07-26T04:10:47.535Z,25.64
2022-07-26T04:13:14.677Z,25.63
2022-07-26T04:15:41.773Z,25.63
2022-07-26T04:18:10.290Z,25.62
2022-07-26T04:20:37.465Z,25.62
2022-07-26T04:23:04.633Z,25.62
2022-07-26T04:25:38.654Z,25.62
2022-07-26T04:28:08.662Z,25.60
2022-07-26T04:30:35.939Z,25.60
2022-07-26T04:33:03.239Z,25.59
2022-07-26T04:35:31.483Z,25.60
2022-07-26T04:37:58.727Z,25.59
2022-07-26T04:40:29.263Z,25.58
2022-07-26T04:42:57.683Z,25.57
2022-07-26T04:45:27.313Z,25.59
2022-07-26T04:47:54.545Z,25.57
2022-07-26T04:50:21.805Z,25.57
2022-07-26T04:52:48.984Z,25.57
2022-07-26T04:55:16.209Z,25.58
2022-07-26T04:57:43.403Z,25.56
2022-07-26T05:00:21.317Z,25.56
2022-07-26T05:02:49.820Z,25.56
2022-07-26T05:05:17.081Z,25.55
2022-07-26T05:07:44.216Z,25.55
2022-07-26T05:10:11.339Z,25.55
2022-07-26T05:12:38.497Z,25.54
2022-07-26T05:15:05.605Z,25.53
2022-07-26T05:17:40.721Z,25.53
2022-07-26T05:20:07.856Z,25.52
2022-07-26T05:22:37.447Z,25.53
2022-07-26T05:25:05.975Z,25.53
2022-07-26T05:27:33.092Z,25.52
2022-07-26T05:30:00.186Z,25.52
2022-07-26T05:32:28.296Z,25.52
2022-07-26T05:34:55.475Z,25.51
2022-07-26T05:37:22.592Z,25.51
2022-07-26T05:39:51.942Z,25.51
2022-07-26T05:42:19.046Z,25.49
2022-07-26T05:44:46.223Z,25.51
2022-07-26T05:47:13.582Z,25.50
2022-07-26T05:49:41.008Z,25.48
2022-07-26T05:52:08.220Z,25.49
2022-07-26T05:54:35.358Z,25.49
2022-07-26T05:57:05.340Z,25.48
2022-07-26T05:59:32.445Z,25.48
2022-07-26T06:01:59.639Z,25.48
2022-07-26T06:04:27.388Z,25.47
2022-07-26T06:06:55.022Z,25.47
2022-07-26T06:09:22.418Z,25.47
2022-07-26T06:11:52.003Z,25.46
2022-07-26T06:14:19.123Z,25.46
2022-07-26T06:16:46.351Z,25.46
2022-07-26T06:19:13.704Z,25.46
2022-07-26T06:21:42.218Z,25.44
2022-07-26T06:24:09.799Z,25.44
2022-07-26T06:26:37.290Z,25.44
2022-07-26T06:29:04.392Z,25.46
2022-07-26T06:31:31.534Z,25.45
2022-07-26T06:34:01.553Z,25.45
2022-07-26T06:36:30.782Z,25.46
2022-07-26T06:38:58.402Z,25.46
2022-07-26T06:41:25.521Z,25.46
2022-07-26T06:43:53.956Z,25.46
2022-07-26T06:46:21.487Z,25.48
2022-07-26T06:48:52.670Z,25.47
2022-07-26T06:51:23.773Z,25.48
2022-07-26T06:53:50.905Z,25.47
2022-07-26T06:56:20.268Z,25.48
2022-07-26T06:58:50.191Z,25.49
2022-07-26T07:01:55.694Z,25.49
2022-07-26T07:04:04.449Z,25.51
2022-07-26T07:06:31.655Z,25.51
2022-07-26T07:09:01.686Z,25.51
2022-07-26T07:11:28.811Z,25.52
2022-07-26T07:13:55.956Z,25.53
2022-07-26T07:16:23.111Z,25.53
2022-07-26T07:18:51.404Z,25.55
2022-07-26T07:21:18.517Z,25.55
2022-07-26T07:23:47.632Z,25.56
2022-07-26T07:26:16.913Z,25.57
2022-07-26T07:28:44.058Z,25.57
2022-07-26T07:31:11.261Z,25.59
2022-07-26T07:33:43.836Z,25.61
2022-07-26T07:36:20.198Z,25.62
2022-07-26T07:38:47.313Z,25.62
2022-07-26T07:41:15.547Z,25.65
2022-07-26T07:43:45.121Z,25.64
2022-07-26T07:46:12.972Z,25.65
2022-07-26T07:48:45.056Z,25.65
2022-07-26T07:51:16.840Z,25.67
2022-07-26T07:53:56.129Z,25.68
2022-07-26T07:56:24.528Z,25.79
2022-07-26T07:58:52.247Z,25.88
2022-07-26T08:01:19.561Z,25.95
2022-07-26T08:03:50.355Z,25.99
2022-07-26T08:06:17.940Z,26.04
2022-07-26T08:08:45.048Z,26.08
2022-07-26T08:11:16.253Z,26.13
2022-07-26T08:13:47.738Z,26.16
2022-07-26T08:16:15.629Z,26.21
2022-07-26T08:18:56.130Z,26.25
2022-07-26T08:21:26.336Z,26.29
2022-07-26T08:23:55.972Z,26.29
2022-07-26T08:26:23.074Z,26.33
2022-07-26T08:29:09.211Z,26.37
2022-07-26T08:31:36.449Z,26.42
2022-07-26T08:34:03.645Z,26.44
2022-07-26T08:36:33.124Z,26.47
2022-07-26T08:39:00.436Z,26.49
2022-07-26T08:41:27.548Z,26.51
2022-07-26T08:43:54.675Z,26.54
2022-07-26T08:46:25.303Z,26.55
2022-07-26T08:48:52.946Z,26.57
2022-07-26T08:51:21.274Z,26.59
2022-07-26T08:53:48.388Z,26.59
2022-07-26T08:56:15.524Z,26.59
2022-07-26T08:58:43.553Z,26.60
2022-07-26T09:01:19.878Z,26.61
2022-07-26T09:03:48.560Z,26.62
2022-07-26T09:06:15.793Z,26.64
2022-07-26T09:08:42.904Z,26.66
2022-07-26T09:11:10.016Z,26.67
2022-07-26T09:13:37.125Z,26.67
2022-07-26T09:16:04.346Z,26.67
2022-07-26T09:18:31.473Z,26.69
2022-07-26T09:20:58.969Z,26.70
2022-07-26T09:23:26.621Z,26.68
2022-07-26T09:25:54.917Z,26.68
2022-07-26T09:28:22.114Z,26.68
2022-07-26T09:30:50.453Z,26.67
2022-07-26T09:33:17.597Z,26.68
2022-07-26T09:35:50.732Z,26.68
2022-07-26T09:38:19.102Z,26.70
2022-07-26T09:40:49.621Z,26.71
2022-07-26T09:43:23.686Z,26.71
2022-07-26T09:45:51.926Z,26.71
2022-07-26T09:48:23.824Z,26.73
2022-07-26T09:50:50.975Z,26.74
2022-07-26T09:53:18.209Z,26.72
2022-07-26T09:55:45.440Z,26.72
2022-07-26T09:58:14.103Z,26.74
2022-07-26T10:00:41.452Z,26.73
2022-07-26T10:03:08.609Z,26.74
2022-07-26T10:05:35.782Z,26.75
2022-07-26T10:08:02.893Z,26.76
2022-07-26T10:10:30.056Z,26.76
2022-07-26T10:12:57.897Z,26.78
2022-07-26T10:15:25.054Z,26.76
2022-07-26T10:17:52.215Z,26.77
2022-07-26T10:20:24.758Z,26.78
2022-07-26T10:22:52.008Z,26.77
2022-07-26T10:25:19.507Z,26.77
2022-07-26T10:27:46.911Z,26.78
2022-07-26T10:30:18.163Z,26.78
2022-07-26T10:32:45.294Z,26.75
2022-07-26T10:35:12.622Z,26.76
2022-07-26T10:37:43.658Z,26.78
2022-07-26T10:40:13.124Z,26.77
2022-07-26T10:42:40.249Z,26.77
2022-07-26T10:45:07.361Z,26.77
2022-07-26T10:47:36.748Z,26.77
2022-07-26T10:50:05.786Z,26.77
2022-07-26T10:52:33.517Z,26.77
2022-07-26T10:55:00.720Z,26.77
2022-07-26T10:57:27.850Z,26.77
2022-07-26T10:59:58.013Z,26.77
2022-07-26T11:02:26.376Z,26.77
2022-07-26T11:04:53.527Z,26.78
2022-07-26T11:07:20.668Z,26.78
2022-07-26T11:09:47.776Z,26.78
2022-07-26T11:12:14.930Z,26.77
2022-07-26T11:14:47.946Z,26.78
2022-07-26T11:17:15.463Z,26.78
2022-07-26T11:19:42.570Z,26.79
2022-07-26T11:22:09.716Z,26.79
2022-07-26T11:24:38.540Z,26.78
2022-07-26T11:27:05.641Z,26.78
2022-07-26T11:29:39.088Z,26.78
2022-07-26T11:32:16.431Z,26.78
2022-07-26T11:34:45.471Z,26.79
2022-07-26T11:37:16.853Z,26.79
2022-07-26T11:39:43.998Z,26.80
2022-07-26T11:42:11.829Z,26.81
2022-07-26T11:44:38.953Z,26.81
2022-07-26T11:47:06.063Z,26.82
2022-07-26T11:50:00.209Z,26.83
2022-07-26T11:52:25.330Z,26.83
2022-07-26T11:54:54.763Z,26.83
2022-07-26T11:57:22.249Z,26.83
2022-07-26T11:59:51.169Z,26.84
2022-07-26T12:02:18.286Z,26.84
2022-07-26T12:04:46.600Z,26.84
2022-07-26T12:07:13.787Z,26.85
2022-07-26T12:09:40.957Z,26.85
2022-07-26T12:12:10.728Z,26.85
2022-07-26T12:14:37.935Z,26.84
2022-07-26T12:17:05.064Z,26.85
2022-07-26T12:19:32.279Z,26.85
2022-07-26T12:21:59.441Z,26.87
2022-07-26T12:24:26.545Z,26.86
2022-07-26T12:26:53.664Z,26.88
2022-07-26T12:29:26.726Z,26.88
2022-07-26T12:31:53.838Z,26.90
2022-07-26T12:34:21.053Z,26.90
2022-07-26T12:36:48.463Z,26.92
2022-07-26T12:39:15.666Z,26.94
2022-07-26T12:41:45.690Z,26.94
2022-07-26T12:44:13.412Z,26.95
2022-07-26T12:46:41.032Z,26.94
2022-07-26T12:49:08.289Z,26.96
2022-07-26T12:51:35.582Z,26.96
2022-07-26T12:54:03.637Z,26.96
2022-07-26T12:56:30.759Z,26.99
2022-07-26T12:59:06.699Z,26.98
2022-07-26T13:01:33.947Z,26.98
2022-07-26T13:04:01.145Z,27.01
2022-07-26T13:06:28.620Z,27.03
2022-07-26T13:08:56.715Z,27.04
2022-07-26T13:11:23.970Z,27.06
2022-07-26T13:13:51.091Z,27.05
2022-07-26T13:16:20.810Z,27.05
2022-07-26T13:18:47.931Z,27.07
2022-07-26T13:21:15.044Z,27.06
2022-07-26T13:23:42.144Z,27.06
2022-07-26T13:26:10.234Z,27.09
2022-07-26T13:28:37.514Z,27.10
2022-07-26T13:31:04.682Z,27.10
2022-07-26T13:33:31.902Z,27.09
2022-07-26T13:35:59.055Z,27.11
2022-07-26T13:38:28.399Z,27.11
2022-07-26T13:40:56.594Z,27.11
2022-07-26T13:43:24.434Z,27.12
2022-07-26T13:45:51.623Z,27.15
2022-07-26T13:48:18.759Z,27.16
2022-07-26T13:50:45.911Z,27.18
2022-07-26T13:53:13.022Z,27.19
2022-07-26T13:55:40.147Z,27.18
2022-07-26T13:58:10.045Z,27.18
2022-07-26T14:00:37.545Z,27.18
2022-07-26T14:03:04.757Z,27.20
2022-07-26T14:05:31.920Z,27.20
2022-07-26T14:07:59.028Z,27.20
2022-07-26T14:10:26.378Z,27.21
2022-07-26T14:12:53.729Z,27.22
2022-07-26T14:15:23.177Z,27.23
2022-07-26T14:17:51.136Z,27.23
2022-07-26T14:20:18.416Z,27.27
2022-07-26T14:22:45.539Z,27.25
2022-07-26T14:25:12.774Z,27.26
2022-07-26T14:27:40.055Z,27.27
2022-07-26T14:30:07.333Z,27.28
2022-07-26T14:32:34.478Z,27.29
2022-07-26T14:35:01.591Z,27.29
2022-07-26T14:37:43.762Z,27.28
2022-07-26T14:40:14.372Z,27.29
2022-07-26T14:42:41.577Z,27.30
2022-07-26T14:45:09.929Z,27.31
2022-07-26T14:47:37.398Z,27.31
2022-07-26T14:50:07.222Z,27.30
2022-07-26T14:52:34.914Z,27.31
2022-07-26T14:55:02.072Z,27.31
2022-07-26T14:57:29.220Z,27.33
2022-07-26T14:59:56.329Z,27.34
2022-07-26T15:02:23.546Z,27.36
2022-07-26T15:04:50.824Z,27.38
2022-07-26T15:07:18.411Z,27.40
2022-07-26T15:09:45.556Z,27.41
2022-07-26T15:12:12.668Z,27.40
2022-07-26T15:14:41.116Z,27.41
2022-07-26T15:17:08.375Z,27.41
2022-07-26T15:19:35.539Z,27.43
2022-07-26T15:22:02.910Z,27.44
2022-07-26T15:24:30.852Z,27.45
2022-07-26T15:26:58.051Z,27.46
2022-07-26T15:29:25.643Z,27.46
2022-07-26T15:31:52.945Z,27.47
2022-07-26T15:34:20.278Z,27.49
2022-07-26T15:36:47.399Z,27.47
2022-07-26T15:39:17.341Z,27.50
2022-07-26T15:41:45.312Z,27.50
2022-07-26T15:44:12.951Z,27.51
2022-07-26T15:46:40.266Z,27.51
2022-07-26T15:49:07.617Z,27.52
2022-07-26T15:51:34.883Z,27.52
2022-07-26T15:54:02.253Z,27.51
2022-07-26T15:56:29.564Z,27.53
2022-07-26T15:58:56.676Z,27.52
2022-07-26T16:01:23.953Z,27.53
2022-07-26T16:03:51.615Z,27.53
2022-07-26T16:06:18.825Z,27.53
2022-07-26T16:09:14.015Z,27.54
2022-07-26T16:11:35.508Z,27.53
2022-07-26T16:14:02.706Z,27.54
2022-07-26T16:16:30.074Z,27.53
2022-07-26T16:18:57.418Z,27.54
2022-07-26T16:21:27.091Z,27.52
2022-07-26T16:23:54.258Z,27.53
2022-07-26T16:26:21.364Z,27.56
2022-07-26T16:28:48.478Z,27.56
2022-07-26T16:31:15.615Z,27.55
2022-07-26T16:33:45.887Z,27.55
2022-07-26T16:36:14.310Z,27.55
2022-07-26T16:38:41.489Z,27.57
2022-07-26T16:41:09.948Z,27.56
2022-07-26T16:43:37.073Z,27.54
2022-07-26T16:46:04.205Z,27.54
2022-07-26T16:48:31.418Z,27.55
2022-07-26T16:50:58.565Z,27.53
2022-07-26T16:53:25.685Z,27.53
2022-07-26T16:55:52.830Z,27.53
2022-07-26T16:58:19.958Z,27.52
2022-07-26T17:00:47.300Z,27.53
2022-07-26T17:03:15.897Z,27.51
2022-07-26T17:05:43.870Z,27.51
2022-07-26T17:08:11.011Z,27.51
2022-07-26T17:10:38.149Z,27.51
2022-07-26T17:13:05.261Z,27.50
2022-07-26T17:15:33.436Z,27.49
2022-07-26T17:18:00.538Z,27.52
2022-07-26T17:20:27.650Z,27.53
2022-07-26T17:22:54.817Z,27.50
2022-07-26T17:25:24.444Z,27.50
2022-07-26T17:27:51.567Z,27.50
2022-07-26T17:30:19.634Z,27.49
2022-07-26T17:32:47.128Z,27.49
2022-07-26T17:35:14.294Z,27.50
2022-07-26T17:37:41.469Z,27.50
2022-07-26T17:40:08.565Z,27.48
2022-07-26T17:42:36.011Z,27.47
2022-07-26T17:45:03.141Z,27.46
2022-07-26T17:47:31.707Z,27.46
2022-07-26T17:50:08.919Z,27.46
2022-07-26T17:52:45.987Z,27.45
2022-07-26T17:55:13.104Z,27.47
2022-07-26T17:57:40.207Z,27.45
2022-07-26T18:00:07.338Z,27.46
2022-07-26T18:02:34.574Z,27.46
2022-07-26T18:05:03.104Z,27.44
2022-07-26T18:07:30.299Z,27.34
2022-07-26T18:09:57.435Z,27.23
2022-07-26T18:12:26.793Z,27.14
2022-07-26T18:14:56.371Z,27.05
2022-07-26T18:17:23.537Z,27.00
2022-07-26T18:19:50.637Z,27.05
2022-07-26T18:22:17.772Z,27.04
2022-07-26T18:24:44.869Z,27.08
2022-07-26T18:27:13.034Z,27.17
2022-07-26T18:29:41.522Z,27.03
2022-07-26T18:32:11.352Z,27.05
2022-07-26T18:34:38.841Z,27.00
2022-07-26T18:37:05.948Z,26.96
2022-07-26T18:39:33.328Z,26.90
2022-07-26T18:42:01.760Z,26.70
2022-07-26T18:44:30.253Z,26.74
2022-07-26T18:46:57.413Z,26.72
2022-07-26T18:49:30.922Z,26.61
2022-07-26T18:52:01.713Z,26.50
2022-07-26T18:54:32.660Z,26.50
2022-07-26T18:56:59.788Z,26.39
2022-07-26T18:59:26.982Z,26.45
2022-07-26T19:01:56.645Z,26.48
2022-07-26T19:04:28.096Z,26.49
2022-07-26T19:06:57.080Z,26.46
2022-07-26T19:09:24.292Z,26.48
2022-07-26T19:11:52.570Z,26.53
2022-07-26T19:14:19.702Z,26.50
2022-07-26T19:16:46.814Z,26.44
2022-07-26T19:19:15.371Z,26.47
2022-07-26T19:21:46.787Z,26.51
2022-07-26T19:24:13.919Z,26.58
2022-07-26T19:26:41.018Z,26.61
2022-07-26T19:29:09.754Z,26.54
2022-07-26T19:31:39.700Z,26.52
2022-07-26T19:34:06.845Z,26.52
2022-07-26T19:36:36.809Z,26.54
2022-07-26T19:39:04.129Z,26.52
2022-07-26T19:41:31.268Z,26.42
2022-07-26T19:43:58.409Z,26.37
2022-07-26T19:46:25.678Z,26.21
2022-07-26T19:48:55.928Z,26.08
2022-07-26T19:51:26.787Z,26.06
2022-07-26T19:54:42.590Z,26.05
2022-07-26T19:56:45.524Z,26.01
2022-07-26T19:59:13.101Z,26.00
2022-07-26T20:01:41.552Z,26.06
2022-07-26T20:04:08.732Z,26.11
2022-07-26T20:06:41.991Z,26.04
2022-07-26T20:09:10.109Z,25.90
2022-07-26T20:11:40.154Z,25.95
2022-07-26T20:14:07.296Z,26.01
2022-07-26T20:16:37.328Z,26.02
2022-07-26T20:19:04.629Z,26.03
2022-07-26T20:21:33.047Z,26.03
2022-07-26T20:24:00.152Z,26.04
2022-07-26T20:26:30.210Z,26.04
2022-07-26T20:28:59.101Z,26.03
2022-07-26T20:31:26.280Z,26.04
2022-07-26T20:33:53.469Z,26.04
2022-07-26T20:36:23.113Z,26.03
2022-07-26T20:38:51.731Z,26.02
2022-07-26T20:41:24.385Z,26.01
2022-07-26T20:43:52.677Z,26.00
2022-07-26T20:46:26.089Z,26.00
2022-07-26T20:48:53.647Z,26.00
2022-07-26T20:51:20.987Z,25.99
2022-07-26T20:53:48.083Z,25.98
2022-07-26T20:56:15.234Z,25.99
2022-07-26T20:58:42.372Z,25.97
2022-07-26T21:01:13.766Z,25.97
2022-07-26T21:03:41.041Z,25.98
2022-07-26T21:06:08.562Z,25.97
2022-07-26T21:08:35.671Z,25.96
2022-07-26T21:11:05.444Z,25.97
2022-07-26T21:13:35.307Z,25.96
2022-07-26T21:16:10.146Z,25.96
2022-07-26T21:18:40.410Z,25.96
2022-07-26T21:21:07.573Z,25.94
2022-07-26T21:23:34.678Z,25.94
2022-07-26T21:26:01.820Z,25.94
2022-07-26T21:28:31.207Z,25.93
2022-07-26T21:30:59.703Z,25.92
2022-07-26T21:33:29.025Z,25.92
2022-07-26T21:35:58.065Z,25.91
2022-07-26T21:38:32.489Z,25.90
2022-07-26T21:41:01.070Z,25.90
2022-07-26T21:43:28.200Z,25.90
2022-07-26T21:45:55.380Z,25.89
2022-07-26T21:48:27.260Z,25.90
2022-07-26T21:50:54.361Z,25.89
2022-07-26T21:53:23.724Z,25.88
2022-07-26T21:55:50.897Z,25.87
2022-07-26T21:58:25.354Z,25.87
2022-07-26T22:01:06.155Z,25.87
2022-07-26T22:03:34.322Z,25.87
2022-07-26T22:06:02.641Z,25.86
2022-07-26T22:08:33.785Z,25.86
2022-07-26T22:11:00.922Z,25.85
2022-07-26T22:13:31.669Z,25.85
2022-07-26T22:16:00.263Z,25.84
2022-07-26T22:18:27.564Z,25.83
2022-07-26T22:20:54.677Z,25.84
2022-07-26T22:23:24.215Z,25.82
2022-07-26T22:25:54.031Z,25.82
2022-07-26T22:28:21.150Z,25.82
2022-07-26T22:30:48.519Z,25.82
2022-07-26T22:33:15.703Z,25.80
2022-07-26T22:35:44.231Z,25.80
2022-07-26T22:38:12.739Z,25.79
2022-07-26T22:40:42.175Z,25.78
2022-07-26T22:43:10.377Z,25.78
2022-07-26T22:45:40.290Z,25.78
2022-07-26T22:48:08.143Z,25.77
2022-07-26T22:50:35.343Z,25.77
2022-07-26T22:53:02.519Z,25.76
2022-07-26T22:55:29.620Z,25.76
2022-07-26T22:57:56.734Z,25.75
2022-07-26T23:00:27.193Z,25.75
2022-07-26T23:02:56.516Z,25.73
2022-07-26T23:05:26.087Z,25.73
2022-07-26T23:08:36.692Z,25.72
2022-07-26T23:10:59.484Z,25.72
2022-07-26T23:13:28.810Z,25.72
2022-07-26T23:16:01.280Z,25.71
2022-07-26T23:18:28.973Z,25.71
2022-07-26T23:20:56.065Z,25.70
2022-07-26T23:23:23.186Z,25.70
2022-07-26T23:25:54.911Z,25.69
2022-07-26T23:28:35.783Z,25.68
2022-07-26T23:31:05.354Z,25.67
2022-07-26T23:33:52.742Z,25.67
2022-07-26T23:36:23.405Z,25.66
2022-07-26T23:38:50.508Z,25.65
2022-07-26T23:41:19.842Z,25.65
2022-07-26T23:43:46.935Z,25.64
2022-07-26T23:46:14.093Z,25.64
2022-07-26T23:48:41.342Z,25.63
2022-07-26T23:51:11.542Z,25.62
2022-07-26T23:53:38.658Z,25.61
2022-07-26T23:56:05.772Z,25.60
2022-07-26T23:58:32.903Z,25.61
